UIIIUIUU

Guest
Details From UIII - Irkutsk
To UIUU - MUKHINO
Flight Number -
Tags generated
Created
Modified
Stats Distance 116 nm / 215 km
Max Altitude 13,300 ft / 4,054 m
Waypoints 3
Social Downloads 2
Likes 0
Share VATSIM

Download

Looking for another format? Having issues loading an existing format? Contact us
Advertisement - Login to hide

Notes

Basic altitude profile: - Ascent Rate: 1500ft/min - Ascent Speed: 250kts - Cruise Altitude: 110ft - Cruise Speed: 300kts - Descent Rate: 1800ft/min - Descent Speed: 240kts Options: - Use NATs: yes - Use PACOTS: yes - Use low airways: yes - Use high airways: yes

Route

UIII PF B155 UIUU

ID Type Via Altitude Latitude Longitude Leg Dist Tot Dist Heading (true) Name
O UIII APT - 0 ft / 0 m 52.26644˚ 104.39569˚ - 0 nm - Irkutsk
PF NDB - 13,300 ft / 4,054 m 52.03333˚ 105.41667˚ 40 nm 40 nm 110° / 111° -
O UIUU APT B155 (AWY-LO) 8,900 ft / 2,713 m 51.81082˚ 107.44102˚ 76 nm 116 nm 99° / 101° MUKHINO

Altitude Profile

Advertisement - Login to hide

UIII

Details ICAO UIII (IKT)
Name Irkutsk
Region Russia
Timezone Asia/Irkutsk (UTC+8.0)
Stats Elevation 1,675 ft / 511 m (AMSL)
Location 52.266437° 104.395694°
Runways 1
Magnetic Variation 3.787° W

METAR

UIII 231300Z 01005MPS 9999 FEW050CB 16/07 Q0994 R30/60D NOSIG RMK QFE701/0935

Decode

TAF

TAF UIII 231100Z 2312/2412 34003MPS 9999 BKN015CB TEMPO 2312/2324 VRB08MPS -TSRA

Decode

Departure Runways

ID Width Length Bearing (true) Bearing (mag) Surface Threshold Offset Overrun Length
12 148 ft / 45 m 10,408 ft / 3,172 m 113.68° 117.47° Concrete 1,312 ft / 400 m 266 ft / 81 m
30 148 ft / 45 m 10,408 ft / 3,172 m 293.72° 297.51° Concrete 1,178 ft / 359 m 1,316 ft / 401 m

UIUU

Details ICAO UIUU (UUD)
Name MUKHINO
Region Russia
Timezone Asia/Irkutsk (UTC+8.0)
Stats Elevation 1,690 ft / 515 m (AMSL)
Location 51.810816° 107.441023°
Runways 3
Magnetic Variation 5.453° W

METAR

UIUU 231300Z 01004MPS 9999 FEW046 17/05 Q0993 R26/60D NOSIG RMK QFE701/0935

Decode

TAF

TAF UIUU 231100Z 2312/2412 32005G10MPS 9999 BKN020CB

Decode

Destination Runways

ID Width Length Bearing (true) Bearing (mag) Surface Threshold Offset Overrun Length
08 148 ft / 45 m 9,753 ft / 2,973 m 77.98° 83.43° Concrete 0 ft / 0 m 161 ft / 49 m
08L 341 ft / 104 m 6,682 ft / 2,037 m 78.10° 83.55° Grass 0 ft / 0 m 0 ft / 0 m
14 315 ft / 96 m 4,620 ft / 1,408 m 135.31° 140.76° Grass 0 ft / 0 m 0 ft / 0 m
26 148 ft / 45 m 9,753 ft / 2,973 m 258.01° 263.46° Concrete 0 ft / 0 m 171 ft / 52 m
26R 341 ft / 104 m 6,682 ft / 2,037 m 258.12° 263.57° Grass 0 ft / 0 m 0 ft / 0 m
32 315 ft / 96 m 4,620 ft / 1,408 m 315.32° 320.77° Grass 0 ft / 0 m 0 ft / 0 m

Approach Navaids

Runway Type Ident Frequency Range Bearing (true) Bearing (mag) Slope Elevation
26 Localiser IZD 110.30 MHz 18 nm / 33 km 258.84° 264.29° - 1,690 ft / 515 m (AMSL)
26 Glidescope IZD 110.30 MHz 10 nm / 19 km 259.00° 264.45° 3.30° 1,690 ft / 515 m (AMSL)

Popular Alternatives